createdAt,value
2018-03-19T00:00:38.887Z,49.66
2018-03-19T00:01:38.877Z,49.66
2018-03-19T00:02:38.863Z,49.38
2018-03-19T00:03:38.851Z,49.76
2018-03-19T00:04:38.837Z,49.57
2018-03-19T00:05:38.822Z,49.66
2018-03-19T00:06:38.808Z,49.66
2018-03-19T00:07:38.801Z,49.85
2018-03-19T00:08:38.782Z,50.13
2018-03-19T00:09:38.773Z,50.70
2018-03-19T00:10:38.755Z,50.70
2018-03-19T00:11:38.743Z,50.32
2018-03-19T00:12:38.734Z,50.42
2018-03-19T00:13:38.715Z,50.51
2018-03-19T00:14:38.703Z,50.89
2018-03-19T00:15:38.690Z,50.98
2018-03-19T00:16:38.676Z,51.07
2018-03-19T00:17:38.669Z,51.07
2018-03-19T00:18:38.652Z,51.07
2018-03-19T00:19:38.637Z,51.26
2018-03-19T00:20:38.622Z,51.26
2018-03-19T00:21:38.611Z,51.17
2018-03-19T00:22:38.598Z,51.26
2018-03-19T00:23:38.592Z,50.89
2018-03-19T00:24:38.570Z,51.36
2018-03-19T00:25:38.557Z,51.83
2018-03-19T00:26:38.545Z,51.45
2018-03-19T00:27:38.528Z,51.26
2018-03-19T00:28:38.517Z,51.36
2018-03-19T00:29:38.503Z,51.36
2018-03-19T00:30:38.500Z,51.45
2018-03-19T00:31:38.480Z,51.45
2018-03-19T00:32:38.460Z,51.45
2018-03-19T00:33:38.449Z,51.83
2018-03-19T00:34:38.436Z,51.92
2018-03-19T00:35:38.427Z,51.73
2018-03-19T00:36:38.410Z,52.11
2018-03-19T00:37:38.397Z,52.59
2018-03-19T00:38:38.383Z,52.68
2018-03-19T00:39:38.374Z,52.59
2018-03-19T00:40:38.357Z,52.68
2018-03-19T00:41:38.342Z,52.87
2018-03-19T00:42:38.329Z,52.59
2018-03-19T00:43:38.318Z,52.78
2018-03-19T00:44:38.306Z,52.40
2018-03-19T00:45:38.291Z,52.47
2018-03-19T00:46:38.273Z,52.49
2018-03-19T00:47:38.258Z,52.68
2018-03-19T00:48:38.248Z,52.66
2018-03-19T00:49:38.236Z,52.59
2018-03-19T00:50:38.224Z,53.34
2018-03-19T00:51:38.210Z,53.06
2018-03-19T00:52:38.201Z,52.40
2018-03-19T00:53:38.181Z,52.49
2018-03-19T00:54:38.168Z,53.25
2018-03-19T00:55:38.167Z,53.06
2018-03-19T00:56:38.137Z,53.15
2018-03-19T00:57:38.129Z,53.03
2018-03-19T00:58:38.118Z,53.06
2018-03-19T00:59:38.104Z,53.06
2018-03-19T01:00:38.087Z,53.06
2018-03-19T01:01:38.075Z,53.25
2018-03-19T01:02:38.062Z,53.13
2018-03-19T01:03:38.053Z,53.31
2018-03-19T01:04:38.038Z,53.03
2018-03-19T01:05:38.020Z,53.03
2018-03-19T01:06:38.008Z,53.22
2018-03-19T01:07:37.993Z,53.50
2018-03-19T01:08:37.980Z,53.59
2018-03-19T01:09:37.971Z,53.41
2018-03-19T01:10:37.952Z,53.88
2018-03-19T01:11:37.939Z,53.78
2018-03-19T01:12:37.925Z,54.16
2018-03-19T01:13:37.914Z,54.35
2018-03-19T01:14:37.899Z,54.26
2018-03-19T01:15:37.887Z,54.35
2018-03-19T01:16:37.872Z,54.35
2018-03-19T01:17:37.861Z,54.07
2018-03-19T01:18:37.843Z,53.97
2018-03-19T01:19:37.833Z,54.54
2018-03-19T01:20:37.818Z,54.16
2018-03-19T01:21:37.813Z,54.63
2018-03-19T01:22:37.793Z,54.92
2018-03-19T01:23:37.777Z,54.92
2018-03-19T01:24:37.764Z,55.39
2018-03-19T01:25:37.751Z,55.30
2018-03-19T01:26:37.738Z,55.39
2018-03-19T01:27:37.723Z,55.20
2018-03-19T01:28:37.706Z,55.67
2018-03-19T01:29:37.697Z,55.96
2018-03-19T01:30:37.684Z,55.67
2018-03-19T01:31:37.674Z,55.77
2018-03-19T01:32:37.654Z,55.77
2018-03-19T01:33:37.639Z,55.96
2018-03-19T01:34:37.629Z,56.24
2018-03-19T01:35:37.617Z,56.62
2018-03-19T01:36:37.600Z,56.43
2018-03-19T01:37:37.584Z,56.81
2018-03-19T01:38:37.572Z,56.71
2018-03-19T01:39:37.563Z,56.62
2018-03-19T01:40:37.547Z,56.99
2018-03-19T01:41:37.539Z,57.28
2018-03-19T01:42:37.521Z,56.99
2018-03-19T01:43:37.507Z,57.09
2018-03-19T01:44:37.580Z,57.28
2018-03-19T01:45:37.483Z,57.46
2018-03-19T01:46:37.468Z,57.28
2018-03-19T01:47:37.454Z,57.28
2018-03-19T01:48:37.442Z,57.75
2018-03-19T01:49:37.425Z,57.28
2018-03-19T01:50:37.414Z,57.37
2018-03-19T01:51:37.399Z,58.41
2018-03-19T01:52:37.384Z,58.12
2018-03-19T01:53:37.371Z,58.22
2018-03-19T01:54:37.359Z,58.88
2018-03-19T01:55:37.345Z,58.69
2018-03-19T01:56:37.332Z,58.98
2018-03-19T01:57:37.322Z,58.98
2018-03-19T01:58:37.303Z,59.07
2018-03-19T01:59:37.290Z,59.54
2018-03-19T02:00:37.276Z,59.26
2018-03-19T02:01:37.262Z,59.07
2018-03-19T02:02:37.249Z,59.26
2018-03-19T02:03:37.232Z,59.17
2018-03-19T02:04:37.221Z,59.83
2018-03-19T02:05:37.208Z,59.73
2018-03-19T02:06:37.196Z,59.73
2018-03-19T02:07:37.181Z,60.39
2018-03-19T02:08:37.166Z,60.46
2018-03-19T02:09:37.151Z,60.36
2018-03-19T02:10:37.140Z,60.55
2018-03-19T02:11:37.126Z,60.74
2018-03-19T02:12:37.107Z,60.58
2018-03-19T02:13:37.099Z,60.49
2018-03-19T02:14:37.089Z,60.21
2018-03-19T02:15:37.072Z,60.27
2018-03-19T02:16:37.056Z,60.55
2018-03-19T02:17:37.044Z,60.55
2018-03-19T02:18:37.030Z,60.83
2018-03-19T02:19:37.018Z,61.58
2018-03-19T02:20:37.001Z,61.58
2018-03-19T02:21:36.987Z,60.64
2018-03-19T02:22:36.974Z,60.93
2018-03-19T02:23:36.962Z,60.36
2018-03-19T02:24:36.949Z,60.83
2018-03-19T02:25:36.932Z,61.30
2018-03-19T02:26:36.919Z,61.30
2018-03-19T02:27:36.909Z,61.21
2018-03-19T02:28:36.894Z,60.93
2018-03-19T02:29:36.880Z,61.77
2018-03-19T02:30:36.867Z,61.68
2018-03-19T02:31:36.852Z,61.77
2018-03-19T02:32:36.838Z,62.25
2018-03-19T02:33:36.822Z,62.06
2018-03-19T02:34:36.824Z,62.43
2018-03-19T02:35:36.797Z,61.96
2018-03-19T02:36:36.780Z,62.06
2018-03-19T02:37:36.769Z,61.68
2018-03-19T02:38:36.757Z,62.06
2018-03-19T02:39:36.743Z,61.96
2018-03-19T02:40:36.733Z,61.87
2018-03-19T02:41:36.711Z,62.06
2018-03-19T02:42:36.703Z,62.53
2018-03-19T02:43:36.685Z,63.00
2018-03-19T02:44:36.674Z,63.19
2018-03-19T02:45:36.657Z,63.19
2018-03-19T02:46:36.643Z,63.19
2018-03-19T02:47:36.633Z,63.19
2018-03-19T02:48:36.622Z,63.19
2018-03-19T02:49:36.603Z,63.00
2018-03-19T02:50:36.588Z,63.19
2018-03-19T02:51:36.575Z,63.29
2018-03-19T02:52:36.563Z,63.10
2018-03-19T02:53:36.545Z,62.91
2018-03-19T02:54:36.531Z,63.29
2018-03-19T02:55:36.517Z,63.57
2018-03-19T02:56:36.503Z,63.38
2018-03-19T02:57:36.492Z,63.57
2018-03-19T02:58:36.479Z,64.14
2018-03-19T02:59:36.463Z,63.95
2018-03-19T03:00:36.447Z,64.42
2018-03-19T03:01:36.446Z,64.23
2018-03-19T03:02:36.444Z,63.76
2018-03-19T03:03:36.406Z,63.76
2018-03-19T03:04:36.391Z,63.57
2018-03-19T03:05:36.378Z,63.95
2018-03-19T03:06:36.369Z,64.70
2018-03-19T03:07:36.349Z,64.61
2018-03-19T03:08:36.335Z,64.51
2018-03-19T03:09:36.321Z,65.26
2018-03-19T03:10:36.308Z,64.51
2018-03-19T03:11:36.296Z,65.26
2018-03-19T03:12:36.277Z,64.98
2018-03-19T03:13:36.268Z,65.17
2018-03-19T03:14:36.251Z,64.89
2018-03-19T03:15:36.238Z,64.98
2018-03-19T03:16:36.226Z,65.83
2018-03-19T03:17:36.206Z,65.17
2018-03-19T03:18:36.195Z,65.64
2018-03-19T03:19:36.180Z,65.73
2018-03-19T03:20:36.173Z,65.45
2018-03-19T03:21:36.152Z,65.64
2018-03-19T03:22:36.138Z,65.73
2018-03-19T03:23:36.127Z,65.55
2018-03-19T03:24:36.115Z,65.73
2018-03-19T03:25:36.096Z,66.49
2018-03-19T03:26:36.083Z,66.77
2018-03-19T03:27:36.066Z,67.06
2018-03-19T03:28:36.053Z,67.81
2018-03-19T03:29:36.067Z,68.10
2018-03-19T03:30:36.032Z,68.76
2018-03-19T03:31:36.011Z,69.60
2018-03-19T03:32:35.998Z,69.89
2018-03-19T03:33:35.984Z,70.54
2018-03-19T03:34:35.971Z,70.92
2018-03-19T03:35:35.957Z,71.30
2018-03-19T03:36:35.942Z,71.87
2018-03-19T03:37:35.928Z,72.72
2018-03-19T03:38:35.912Z,72.34
2018-03-19T03:39:35.900Z,72.72
2018-03-19T03:40:35.885Z,73.75
2018-03-19T03:41:35.873Z,73.85
2018-03-19T03:42:35.857Z,73.75
2018-03-19T03:43:35.843Z,73.94
2018-03-19T03:44:35.827Z,74.41
2018-03-19T03:45:35.814Z,74.60
2018-03-19T03:46:35.804Z,74.13
2018-03-19T03:47:35.786Z,74.04
2018-03-19T03:48:35.811Z,74.32
2018-03-19T03:49:35.757Z,73.85
2018-03-19T03:50:35.744Z,73.94
2018-03-19T03:51:35.729Z,74.22
2018-03-19T03:52:35.714Z,74.22
2018-03-19T03:53:35.700Z,74.32
2018-03-19T03:54:35.685Z,74.51
2018-03-19T03:55:35.691Z,73.75
2018-03-19T03:56:35.657Z,74.32
2018-03-19T03:57:35.643Z,74.13
2018-03-19T03:58:35.632Z,73.75
2018-03-19T03:59:35.616Z,74.51
2018-03-19T04:00:35.601Z,73.94
2018-03-19T04:01:35.586Z,74.69
2018-03-19T04:02:35.583Z,74.22
2018-03-19T04:03:35.557Z,74.13
2018-03-19T04:04:35.550Z,74.41
2018-03-19T04:05:35.529Z,74.41
2018-03-19T04:06:35.512Z,73.85
2018-03-19T04:07:35.499Z,73.57
2018-03-19T04:08:35.485Z,73.47
2018-03-19T04:09:35.471Z,74.04
2018-03-19T04:10:35.459Z,73.85
2018-03-19T04:11:35.441Z,73.75
2018-03-19T04:12:35.429Z,73.57
2018-03-19T04:13:35.414Z,73.19
2018-03-19T04:14:35.402Z,74.04
2018-03-19T04:15:35.387Z,73.75
2018-03-19T04:16:35.370Z,73.94
2018-03-19T04:17:35.353Z,73.75
2018-03-19T04:18:35.342Z,74.41
2018-03-19T04:19:35.327Z,74.22
2018-03-19T04:20:35.316Z,74.22
2018-03-19T04:21:35.297Z,74.60
2018-03-19T04:22:35.290Z,74.32
2018-03-19T04:23:35.270Z,74.79
2018-03-19T04:24:35.255Z,75.36
2018-03-19T04:25:35.244Z,75.45
2018-03-19T04:26:35.226Z,75.45
2018-03-19T04:27:35.212Z,75.17
2018-03-19T04:28:35.196Z,75.07
2018-03-19T04:29:35.183Z,75.26
2018-03-19T04:30:35.167Z,75.45
2018-03-19T04:31:35.151Z,75.36
2018-03-19T04:32:35.137Z,75.36
2018-03-19T04:33:35.132Z,75.17
2018-03-19T04:34:35.114Z,75.73
2018-03-19T04:35:35.095Z,76.40
2018-03-19T04:36:35.078Z,76.49
2018-03-19T04:37:35.070Z,76.49
2018-03-19T04:38:35.051Z,76.58
2018-03-19T04:39:35.038Z,76.40
2018-03-19T04:40:35.023Z,76.68
2018-03-19T04:41:35.007Z,76.77
2018-03-19T04:42:34.992Z,76.58
2018-03-19T04:43:34.979Z,76.40
2018-03-19T04:44:34.964Z,76.77
2018-03-19T04:45:34.946Z,77.34
2018-03-19T04:46:34.933Z,76.96
2018-03-19T04:47:34.920Z,77.15
2018-03-19T04:48:34.961Z,77.53
2018-03-19T04:49:34.889Z,77.34
2018-03-19T04:50:34.875Z,78.00
2018-03-19T04:51:34.857Z,78.19
2018-03-19T04:52:34.851Z,78.00
2018-03-19T04:53:34.831Z,78.38
2018-03-19T04:54:34.816Z,78.28
2018-03-19T04:55:34.802Z,78.09
2018-03-19T04:56:34.787Z,78.19
2018-03-19T04:57:34.772Z,78.47
2018-03-19T04:58:34.767Z,78.56
2018-03-19T04:59:34.744Z,78.81
2018-03-19T05:00:34.725Z,79.09
2018-03-19T05:01:34.723Z,78.81
2018-03-19T05:02:34.698Z,78.81
2018-03-19T05:03:34.694Z,79.47
2018-03-19T05:04:34.669Z,79.60
2018-03-19T05:05:34.654Z,79.37
2018-03-19T05:06:34.642Z,79.75
2018-03-19T05:07:34.626Z,79.75
2018-03-19T05:08:34.610Z,79.37
2018-03-19T05:09:34.596Z,79.37
2018-03-19T05:10:34.581Z,79.94
2018-03-19T05:11:34.567Z,79.94
2018-03-19T05:12:34.552Z,79.69
2018-03-19T05:13:34.537Z,80.32
2018-03-19T05:14:34.525Z,79.79
2018-03-19T05:15:34.508Z,79.88
2018-03-19T05:16:34.492Z,79.98
2018-03-19T05:17:34.500Z,80.54
2018-03-19T05:18:34.465Z,80.26
2018-03-19T05:19:34.447Z,79.98
2018-03-19T05:20:34.433Z,80.54
2018-03-19T05:21:34.422Z,80.73
2018-03-19T05:22:34.405Z,80.73
2018-03-19T05:23:34.392Z,80.83
2018-03-19T05:24:34.379Z,80.79
2018-03-19T05:25:34.365Z,81.21
2018-03-19T05:26:34.344Z,80.88
2018-03-19T05:27:34.332Z,80.92
2018-03-19T05:28:34.317Z,80.92
2018-03-19T05:29:34.301Z,80.73
2018-03-19T05:30:34.289Z,80.73
2018-03-19T05:31:34.275Z,80.73
2018-03-19T05:32:34.260Z,80.73
2018-03-19T05:33:34.243Z,80.83
2018-03-19T05:34:34.229Z,81.02
2018-03-19T05:35:34.215Z,80.83
2018-03-19T05:36:34.200Z,80.92
2018-03-19T05:37:34.186Z,80.92
2018-03-19T05:38:34.172Z,80.83
2018-03-19T05:39:34.151Z,81.02
2018-03-19T05:40:34.140Z,80.73
2018-03-19T05:41:34.131Z,80.73
2018-03-19T05:42:34.111Z,81.11
2018-03-19T05:43:34.099Z,81.02
2018-03-19T05:44:34.081Z,81.02
2018-03-19T05:45:34.069Z,80.92
2018-03-19T05:46:34.053Z,81.21
2018-03-19T05:47:34.040Z,81.21
2018-03-19T05:48:34.021Z,80.73
2018-03-19T05:49:34.013Z,80.45
2018-03-19T05:50:33.994Z,80.36
2018-03-19T05:51:33.982Z,80.36
2018-03-19T05:52:33.965Z,79.98
2018-03-19T05:53:33.950Z,79.98
2018-03-19T05:54:33.937Z,80.07
2018-03-19T05:55:33.924Z,79.50
2018-03-19T05:56:33.907Z,78.85
2018-03-19T05:57:33.892Z,79.03
2018-03-19T05:58:33.883Z,78.00
2018-03-19T05:59:33.864Z,76.62
2018-03-19T06:00:33.849Z,74.36
2018-03-19T06:01:33.834Z,73.79
2018-03-19T06:02:33.820Z,74.64
2018-03-19T06:03:33.814Z,75.26
2018-03-19T06:04:33.791Z,76.77
2018-03-19T06:05:33.778Z,77.62
2018-03-19T06:06:33.763Z,78.47
2018-03-19T06:07:33.749Z,78.47
2018-03-19T06:08:33.733Z,78.94
2018-03-19T06:09:33.720Z,78.94
2018-03-19T06:10:33.714Z,79.13
2018-03-19T06:11:33.693Z,78.85
2018-03-19T06:12:33.673Z,79.22
2018-03-19T06:13:33.662Z,79.41
2018-03-19T06:14:33.646Z,78.75
2018-03-19T06:15:33.640Z,78.94
2018-03-19T06:16:33.615Z,78.47
2018-03-19T06:17:33.602Z,78.09
2018-03-19T06:18:33.597Z,78.09
2018-03-19T06:19:33.577Z,77.25
2018-03-19T06:20:33.562Z,77.53
2018-03-19T06:21:33.548Z,77.34
2018-03-19T06:22:33.536Z,77.47
2018-03-19T06:23:33.521Z,77.85
2018-03-19T06:24:33.509Z,77.28
2018-03-19T06:25:33.491Z,76.53
2018-03-19T06:26:33.478Z,76.72
2018-03-19T06:27:33.462Z,76.72
2018-03-19T06:28:33.451Z,76.34
2018-03-19T06:29:33.433Z,76.15
2018-03-19T06:30:33.420Z,75.96
2018-03-19T06:31:33.407Z,76.15
2018-03-19T06:32:33.391Z,74.36
2018-03-19T06:33:33.377Z,71.94
2018-03-19T06:34:33.363Z,67.69
2018-03-19T06:35:33.353Z,66.65
2018-03-19T06:36:33.335Z,67.03
2018-03-19T06:37:33.322Z,67.94
2018-03-19T06:38:33.307Z,69.26
2018-03-19T06:39:33.295Z,69.11
2018-03-19T06:40:33.281Z,66.75
2018-03-19T06:41:33.267Z,63.67
2018-03-19T06:42:33.254Z,61.24
2018-03-19T06:43:33.241Z,58.97
2018-03-19T06:44:33.226Z,57.20
2018-03-19T06:45:33.214Z,55.50
2018-03-19T06:46:33.202Z,54.65
2018-03-19T06:47:33.187Z,53.26
2018-03-19T06:48:33.178Z,52.88
2018-03-19T06:49:33.162Z,52.79
2018-03-19T06:50:33.150Z,51.93
2018-03-19T06:51:33.138Z,51.72
2018-03-19T06:52:33.123Z,52.10
2018-03-19T06:53:33.114Z,53.14
2018-03-19T06:54:33.103Z,52.60
2018-03-19T06:55:33.133Z,51.53
2018-03-19T06:56:33.097Z,51.93
2018-03-19T06:57:33.073Z,51.18
2018-03-19T06:58:33.057Z,51.18
2018-03-19T06:59:33.044Z,50.61
2018-03-19T07:00:33.033Z,50.42
2018-03-19T07:01:33.027Z,50.42
2018-03-19T07:02:33.017Z,50.33
2018-03-19T07:03:33.004Z,50.71
2018-03-19T07:04:32.990Z,50.87
2018-03-19T07:05:32.981Z,51.06
2018-03-19T07:06:33.033Z,51.46
2018-03-19T07:07:32.964Z,51.09
2018-03-19T07:08:32.949Z,50.33
2018-03-19T07:09:32.943Z,50.35
2018-03-19T07:10:32.928Z,49.57
2018-03-19T07:11:32.971Z,49.35
2018-03-19T07:12:32.904Z,49.92
2018-03-19T07:13:32.896Z,50.26
2018-03-19T07:14:32.883Z,49.22
2018-03-19T07:15:32.873Z,48.18
2018-03-19T07:16:32.864Z,47.58
2018-03-19T07:17:32.862Z,48.82
2018-03-19T07:18:32.842Z,48.91
2018-03-19T07:19:32.844Z,49.07
2018-03-19T07:20:32.825Z,49.83
2018-03-19T07:21:32.808Z,50.46
2018-03-19T07:22:32.860Z,51.50
2018-03-19T07:23:32.795Z,53.18
2018-03-19T07:24:32.783Z,54.32
2018-03-19T07:25:32.780Z,55.26
2018-03-19T07:26:32.762Z,56.20
2018-03-19T07:27:32.748Z,57.05
2018-03-19T07:28:32.740Z,57.34
2018-03-19T07:29:32.732Z,57.43
2018-03-19T07:30:32.717Z,57.43
2018-03-19T07:31:32.730Z,56.48
2018-03-19T07:32:32.694Z,56.48
2018-03-19T07:33:32.681Z,55.92
2018-03-19T07:34:32.679Z,55.35
2018-03-19T07:35:32.662Z,54.32
2018-03-19T07:36:32.650Z,53.18
2018-03-19T07:37:32.636Z,52.51
2018-03-19T07:38:32.625Z,52.51
2018-03-19T07:39:32.614Z,51.86
2018-03-19T07:40:32.601Z,51.48
2018-03-19T07:41:32.589Z,51.39
2018-03-19T07:42:32.577Z,50.53
2018-03-19T07:43:32.578Z,50.35
2018-03-19T07:44:32.550Z,50.53
2018-03-19T07:45:32.542Z,50.63
2018-03-19T07:46:32.531Z,50.53
2018-03-19T07:47:32.518Z,50.25
2018-03-19T07:48:32.549Z,49.30
2018-03-19T07:49:32.494Z,48.93
2018-03-19T07:50:32.478Z,48.74
2018-03-19T07:51:32.467Z,48.36
2018-03-19T07:52:32.453Z,48.65
2018-03-19T07:53:32.447Z,48.46
2018-03-19T07:54:32.430Z,47.61
2018-03-19T07:55:32.416Z,47.89
2018-03-19T07:56:32.404Z,47.80
2018-03-19T07:57:32.394Z,47.80
2018-03-19T07:58:32.385Z,47.61
2018-03-19T07:59:32.369Z,47.51
2018-03-19T08:00:32.357Z,47.82
2018-03-19T08:01:32.340Z,47.89
2018-03-19T08:02:32.333Z,47.70
2018-03-19T08:03:32.318Z,47.16
2018-03-19T08:04:32.305Z,46.28
2018-03-19T08:05:32.294Z,46.00
2018-03-19T08:06:32.283Z,46.21
2018-03-19T08:07:32.269Z,46.97
2018-03-19T08:08:32.254Z,47.25
2018-03-19T08:09:32.243Z,47.34
2018-03-19T08:10:32.229Z,47.25
2018-03-19T08:11:32.216Z,47.42
2018-03-19T08:12:32.208Z,47.91
2018-03-19T08:13:32.193Z,48.39
2018-03-19T08:14:32.186Z,48.86
2018-03-19T08:15:32.169Z,47.63
2018-03-19T08:16:32.155Z,47.44
2018-03-19T08:17:32.144Z,47.72
2018-03-19T08:18:32.132Z,48.01
2018-03-19T08:19:32.118Z,47.72
2018-03-19T08:20:32.112Z,47.16
2018-03-19T08:21:32.098Z,46.97
2018-03-19T08:22:32.083Z,47.25
2018-03-19T08:23:32.069Z,48.01
2018-03-19T08:24:32.066Z,48.48
2018-03-19T08:25:32.045Z,48.67
2018-03-19T08:26:32.032Z,48.95
2018-03-19T08:27:32.016Z,48.48
2018-03-19T08:28:32.007Z,48.76
2018-03-19T08:29:31.994Z,48.95
2018-03-19T08:30:32.013Z,49.33
2018-03-19T08:31:31.974Z,49.62
2018-03-19T08:32:31.960Z,49.90
2018-03-19T08:33:31.946Z,49.90
2018-03-19T08:34:31.934Z,49.62
2018-03-19T08:35:31.954Z,49.24
2018-03-19T08:36:31.907Z,49.43
2018-03-19T08:37:31.897Z,49.43
2018-03-19T08:38:31.885Z,48.76
2018-03-19T08:39:31.871Z,49.80
2018-03-19T08:40:31.863Z,49.71
2018-03-19T08:41:31.865Z,49.52
2018-03-19T08:42:31.836Z,49.99
2018-03-19T08:43:31.819Z,49.90
2018-03-19T08:44:31.811Z,49.99
2018-03-19T08:45:31.827Z,49.62
2018-03-19T08:46:31.787Z,49.71
2018-03-19T08:47:31.841Z,48.95
2018-03-19T08:48:31.762Z,49.05
2018-03-19T08:49:31.750Z,48.76
2018-03-19T08:50:31.756Z,48.86
2018-03-19T08:51:31.727Z,49.05
2018-03-19T08:52:31.761Z,49.14
2018-03-19T08:53:31.815Z,49.24
2018-03-19T08:54:31.768Z,48.86
2018-03-19T08:55:31.677Z,49.24
2018-03-19T08:56:31.740Z,49.05
2018-03-19T08:57:31.653Z,49.52
2018-03-19T08:58:31.644Z,49.62
2018-03-19T08:59:31.627Z,49.62
2018-03-19T09:00:31.617Z,49.33
2018-03-19T09:01:31.603Z,49.24
2018-03-19T09:02:31.591Z,49.33
2018-03-19T09:03:31.579Z,48.76
2018-03-19T09:04:31.567Z,48.29
2018-03-19T09:05:31.557Z,48.10
2018-03-19T09:06:31.550Z,47.75
2018-03-19T09:07:31.563Z,48.79
2018-03-19T09:08:31.525Z,48.41
2018-03-19T09:09:31.506Z,48.79
2018-03-19T09:10:31.491Z,48.03
2018-03-19T09:11:31.482Z,47.56
2018-03-19T09:12:31.469Z,47.66
2018-03-19T09:13:31.501Z,47.85
2018-03-19T09:14:31.445Z,47.66
2018-03-19T09:15:31.434Z,47.94
2018-03-19T09:16:31.421Z,47.56
2018-03-19T09:17:31.410Z,46.90
2018-03-19T09:18:31.398Z,46.80
2018-03-19T09:19:31.390Z,46.69
2018-03-19T09:20:31.374Z,46.90
2018-03-19T09:21:31.360Z,46.04
2018-03-19T09:22:31.351Z,45.29
2018-03-19T09:23:31.340Z,45.57
2018-03-19T09:24:31.326Z,45.39
2018-03-19T09:25:31.314Z,45.67
2018-03-19T09:26:31.311Z,45.01
2018-03-19T09:27:31.287Z,44.44
2018-03-19T09:28:31.277Z,44.44
2018-03-19T09:29:31.266Z,44.82
2018-03-19T09:30:31.314Z,45.67
2018-03-19T09:31:31.244Z,45.48
2018-03-19T09:32:31.231Z,45.48
2018-03-19T09:33:31.220Z,46.04
2018-03-19T09:34:31.212Z,46.04
2018-03-19T09:35:31.195Z,46.23
2018-03-19T09:36:31.201Z,46.23
2018-03-19T09:37:31.172Z,45.95
2018-03-19T09:38:31.159Z,45.57
2018-03-19T09:39:31.154Z,45.86
2018-03-19T09:40:31.145Z,45.48
2018-03-19T09:41:31.125Z,45.48
2018-03-19T09:42:31.114Z,44.91
2018-03-19T09:43:31.103Z,45.76
2018-03-19T09:44:31.088Z,45.29
2018-03-19T09:45:31.087Z,45.76
2018-03-19T09:46:31.070Z,46.45
2018-03-19T09:47:31.056Z,46.07
2018-03-19T09:48:31.047Z,45.01
2018-03-19T09:49:31.031Z,44.82
2018-03-19T09:50:31.020Z,44.82
2018-03-19T09:51:31.007Z,44.63
2018-03-19T09:52:30.998Z,44.63
2018-03-19T09:53:30.987Z,43.96
2018-03-19T09:54:30.976Z,44.44
2018-03-19T09:55:30.964Z,44.72
2018-03-19T09:56:30.950Z,44.65
2018-03-19T09:57:30.941Z,44.93
2018-03-19T09:58:30.939Z,44.56
2018-03-19T09:59:30.920Z,44.74
2018-03-19T10:00:30.904Z,43.90
2018-03-19T10:01:30.895Z,43.90
2018-03-19T10:02:30.890Z,44.18
2018-03-19T10:03:30.872Z,43.99
2018-03-19T10:04:30.861Z,43.71
2018-03-19T10:05:30.851Z,43.71
2018-03-19T10:06:30.838Z,43.87
2018-03-19T10:07:30.828Z,43.90
2018-03-19T10:08:30.825Z,44.27
2018-03-19T10:09:30.806Z,44.84
2018-03-19T10:10:30.792Z,44.65
2018-03-19T10:11:30.783Z,44.37
2018-03-19T10:12:30.771Z,43.90
2018-03-19T10:13:30.758Z,43.90
2018-03-19T10:14:30.748Z,43.14
2018-03-19T10:15:30.740Z,43.33
2018-03-19T10:16:30.725Z,42.57
2018-03-19T10:17:30.714Z,42.19
2018-03-19T10:18:30.702Z,41.72
2018-03-19T10:19:30.689Z,41.06
2018-03-19T10:20:30.695Z,40.11
2018-03-19T10:21:30.719Z,40.01
2018-03-19T10:22:30.692Z,39.83
2018-03-19T10:23:30.642Z,39.45
2018-03-19T10:24:30.635Z,39.54
2018-03-19T10:25:30.624Z,39.54
2018-03-19T10:26:30.614Z,39.54
2018-03-19T10:27:30.627Z,39.07
2018-03-19T10:28:30.590Z,39.54
2018-03-19T10:29:30.578Z,39.54
2018-03-19T10:30:30.584Z,40.20
2018-03-19T10:31:30.562Z,40.77
2018-03-19T10:32:30.548Z,40.79
2018-03-19T10:33:30.544Z,40.98
2018-03-19T10:34:30.537Z,40.70
2018-03-19T10:35:30.512Z,39.56
2018-03-19T10:36:30.505Z,38.98
2018-03-19T10:37:30.493Z,39.07
2018-03-19T10:38:30.481Z,39.54
2018-03-19T10:39:30.468Z,39.64
2018-03-19T10:40:30.504Z,39.84
2018-03-19T10:41:30.446Z,39.75
2018-03-19T10:42:30.437Z,39.84
2018-03-19T10:43:30.426Z,39.07
2018-03-19T10:44:30.496Z,39.18
2018-03-19T10:45:30.403Z,39.09
2018-03-19T10:46:30.389Z,39.18
2018-03-19T10:47:30.382Z,39.28
2018-03-19T10:48:30.369Z,39.56
2018-03-19T10:49:30.361Z,39.56
2018-03-19T10:50:30.345Z,39.75
2018-03-19T10:51:30.338Z,39.56
2018-03-19T10:52:30.328Z,39.56
2018-03-19T10:53:30.310Z,39.56
2018-03-19T10:54:30.306Z,39.00
2018-03-19T10:55:30.295Z,39.47
2018-03-19T10:56:30.284Z,39.37
2018-03-19T10:57:30.273Z,38.90
2018-03-19T10:58:30.263Z,38.90
2018-03-19T10:59:30.253Z,38.81
2018-03-19T11:00:30.241Z,39.00
2018-03-19T11:01:30.234Z,39.09
2018-03-19T11:02:30.222Z,39.37
2018-03-19T11:03:30.210Z,39.00
2018-03-19T11:04:30.250Z,39.00
2018-03-19T11:05:30.190Z,39.37
2018-03-19T11:06:30.178Z,39.56
2018-03-19T11:07:30.171Z,39.56
2018-03-19T11:08:30.228Z,39.56
2018-03-19T11:09:30.147Z,39.47
2018-03-19T11:10:30.137Z,39.18
2018-03-19T11:11:30.126Z,38.90
2018-03-19T11:12:30.166Z,38.90
2018-03-19T11:13:30.127Z,37.95
2018-03-19T11:14:30.095Z,38.05
2018-03-19T11:15:30.088Z,38.14
2018-03-19T11:16:30.070Z,38.14
2018-03-19T11:17:30.162Z,38.24
2018-03-19T11:18:30.055Z,38.24
2018-03-19T11:19:30.044Z,38.33
2018-03-19T11:20:30.114Z,38.71
2018-03-19T11:21:30.022Z,38.81
2018-03-19T11:22:30.010Z,38.33
2018-03-19T11:23:30.005Z,38.62
2018-03-19T11:24:29.990Z,38.62
2018-03-19T11:25:29.981Z,38.33
2018-03-19T11:26:29.970Z,37.67
2018-03-19T11:27:30.047Z,37.57
2018-03-19T11:28:29.963Z,38.14
2018-03-19T11:29:29.938Z,38.43
2018-03-19T11:30:29.927Z,38.14
2018-03-19T11:31:29.923Z,38.43
2018-03-19T11:32:29.906Z,38.24
2018-03-19T11:33:29.896Z,38.43
2018-03-19T11:34:29.890Z,38.24
2018-03-19T11:35:29.879Z,38.62
2018-03-19T11:36:30.356Z,38.54
2018-03-19T11:37:30.078Z,38.26
2018-03-19T11:38:29.847Z,37.48
2018-03-19T11:39:29.833Z,36.82
2018-03-19T11:40:29.822Z,36.93
2018-03-19T11:41:29.814Z,37.01
2018-03-19T11:42:29.804Z,36.65
2018-03-19T11:43:29.795Z,36.74
2018-03-19T11:44:29.781Z,36.17
2018-03-19T11:45:29.771Z,35.98
2018-03-19T11:46:29.795Z,36.27
2018-03-19T11:47:30.099Z,36.46
2018-03-19T11:48:29.741Z,36.46
2018-03-19T11:49:29.737Z,36.36
2018-03-19T11:50:29.757Z,35.89
2018-03-19T11:51:29.710Z,35.51
2018-03-19T11:52:29.700Z,35.32
2018-03-19T11:53:29.690Z,35.79
2018-03-19T11:54:29.681Z,35.60
2018-03-19T11:55:29.672Z,35.60
2018-03-19T11:56:29.659Z,34.75
2018-03-19T11:57:29.648Z,34.84
2018-03-19T11:58:29.638Z,34.94
2018-03-19T11:59:29.629Z,35.32
2018-03-19T12:00:29.659Z,35.60
2018-03-19T12:01:29.607Z,35.51
2018-03-19T12:02:29.597Z,35.81
2018-03-19T12:03:29.592Z,35.89
2018-03-19T12:04:29.577Z,36.17
2018-03-19T12:05:29.571Z,36.46
2018-03-19T12:06:29.569Z,36.74
2018-03-19T12:07:29.548Z,37.04
2018-03-19T12:08:29.538Z,37.04
2018-03-19T12:09:29.531Z,36.76
2018-03-19T12:10:29.517Z,36.76
2018-03-19T12:11:29.509Z,36.57
2018-03-19T12:12:29.500Z,36.57
2018-03-19T12:13:29.488Z,36.47
2018-03-19T12:14:29.482Z,35.81
2018-03-19T12:15:29.471Z,34.86
2018-03-19T12:16:29.510Z,33.33
2018-03-19T12:17:29.453Z,32.97
2018-03-19T12:18:29.442Z,33.06
2018-03-19T12:19:29.431Z,33.25
2018-03-19T12:20:29.421Z,33.23
2018-03-19T12:21:29.412Z,33.63
2018-03-19T12:22:29.402Z,33.92
2018-03-19T12:23:29.396Z,34.77
2018-03-19T12:24:29.380Z,34.67
2018-03-19T12:25:29.372Z,34.86
2018-03-19T12:26:29.367Z,35.43
2018-03-19T12:27:29.354Z,35.53
2018-03-19T12:28:29.338Z,36.00
2018-03-19T12:29:29.338Z,35.34
2018-03-19T12:30:29.326Z,34.48
2018-03-19T12:31:29.315Z,34.01
2018-03-19T12:32:29.306Z,33.35
2018-03-19T12:33:29.297Z,32.97
2018-03-19T12:34:29.461Z,33.35
2018-03-19T12:35:29.287Z,33.73
2018-03-19T12:36:29.318Z,33.92
2018-03-19T12:37:29.264Z,34.20
2018-03-19T12:38:29.250Z,34.11
2018-03-19T12:39:29.240Z,33.82
2018-03-19T12:40:29.294Z,33.63
2018-03-19T12:41:29.222Z,32.97
2018-03-19T12:42:29.212Z,31.26
2018-03-19T12:43:29.220Z,30.51
2018-03-19T12:44:29.194Z,30.51
2018-03-19T12:45:29.186Z,30.79
2018-03-19T12:46:29.178Z,30.98
2018-03-19T12:47:29.169Z,31.45
2018-03-19T12:48:29.155Z,30.69
2018-03-19T12:49:29.148Z,31.47
2018-03-19T12:50:29.146Z,31.26
2018-03-19T12:51:29.130Z,31.83
2018-03-19T12:52:29.121Z,31.83